createdAt,value
2023-03-10T00:02:50.879Z,89
2023-03-10T00:06:16.036Z,89
2023-03-10T00:09:41.219Z,89
2023-03-10T00:13:06.397Z,89
2023-03-10T00:16:31.550Z,89
2023-03-10T00:19:56.736Z,89
2023-03-10T00:23:21.877Z,90
2023-03-10T00:26:47.069Z,90
2023-03-10T00:30:12.246Z,90
2023-03-10T00:33:37.411Z,91
2023-03-10T00:37:02.566Z,91
2023-03-10T00:40:27.719Z,91
2023-03-10T00:43:52.888Z,92
2023-03-10T00:47:18.093Z,92
2023-03-10T00:50:43.240Z,92
2023-03-10T00:54:08.411Z,92
2023-03-10T00:57:33.594Z,92
2023-03-10T01:00:58.784Z,92
2023-03-10T01:04:24.006Z,92
2023-03-10T01:07:49.122Z,92
2023-03-10T01:11:14.336Z,92
2023-03-10T01:14:39.521Z,92
2023-03-10T01:18:04.720Z,92
2023-03-10T01:21:29.903Z,92
2023-03-10T01:24:55.040Z,92
2023-03-10T01:28:20.213Z,92
2023-03-10T01:31:45.467Z,92
2023-03-10T01:35:10.562Z,92
2023-03-10T01:38:35.750Z,92
2023-03-10T01:42:00.904Z,92
2023-03-10T01:45:26.058Z,92
2023-03-10T01:48:51.227Z,92
2023-03-10T01:52:16.412Z,92
2023-03-10T01:55:41.706Z,91
2023-03-10T01:59:06.767Z,91
2023-03-10T02:02:31.920Z,90
2023-03-10T02:05:57.101Z,90
2023-03-10T02:09:22.230Z,90
2023-03-10T02:12:47.419Z,91
2023-03-10T02:16:12.636Z,91
2023-03-10T02:19:37.758Z,91
2023-03-10T02:23:02.904Z,92
2023-03-10T02:26:28.068Z,92
2023-03-10T02:29:59.082Z,92
2023-03-10T02:33:18.396Z,92
2023-03-10T02:36:43.550Z,93
2023-03-10T02:40:08.708Z,93
2023-03-10T02:43:33.871Z,93
2023-03-10T02:46:59.112Z,93
2023-03-10T02:50:24.234Z,93
2023-03-10T02:53:49.351Z,93
2023-03-10T02:57:14.531Z,93
2023-03-10T03:00:39.697Z,93
2023-03-10T03:04:04.990Z,93
2023-03-10T03:07:30.070Z,92
2023-03-10T03:10:55.241Z,93
2023-03-10T03:14:20.392Z,93
2023-03-10T03:17:45.602Z,93
2023-03-10T03:21:10.760Z,93
2023-03-10T03:24:35.861Z,93
2023-03-10T03:28:01.029Z,93
2023-03-10T03:31:26.280Z,93
2023-03-10T03:34:51.338Z,93
2023-03-10T03:38:16.504Z,93
2023-03-10T03:41:41.641Z,93
2023-03-10T03:45:06.821Z,93
2023-03-10T03:48:32.039Z,93
2023-03-10T03:51:57.199Z,93
2023-03-10T03:55:22.374Z,93
2023-03-10T03:58:47.501Z,93
2023-03-10T04:02:12.750Z,93
2023-03-10T04:05:37.840Z,93
2023-03-10T04:09:02.972Z,93
2023-03-10T04:12:28.149Z,93
2023-03-10T04:15:53.307Z,93
2023-03-10T04:19:18.410Z,93
2023-03-10T04:22:43.579Z,93
2023-03-10T04:26:08.761Z,93
2023-03-10T04:29:33.919Z,93
2023-03-10T04:32:59.113Z,93
2023-03-10T04:36:24.231Z,94
2023-03-10T04:39:49.375Z,94
2023-03-10T04:43:14.541Z,94
2023-03-10T04:46:39.745Z,94
2023-03-10T04:50:04.803Z,95
2023-03-10T04:53:29.975Z,95
2023-03-10T04:56:55.104Z,96
2023-03-10T05:00:20.392Z,96
2023-03-10T05:03:45.454Z,96
2023-03-10T05:07:10.597Z,96
2023-03-10T05:10:35.757Z,96
2023-03-10T05:14:00.928Z,96
2023-03-10T05:17:26.069Z,96
2023-03-10T05:20:51.241Z,96
2023-03-10T05:24:16.361Z,97
2023-03-10T05:27:41.502Z,97
2023-03-10T05:31:06.677Z,97
2023-03-10T05:34:31.828Z,97
2023-03-10T05:37:57.015Z,97
2023-03-10T05:41:22.175Z,97
2023-03-10T05:44:47.359Z,97
2023-03-10T05:48:12.536Z,97
2023-03-10T05:51:37.690Z,97
2023-03-10T05:55:02.918Z,97
2023-03-10T05:58:28.024Z,97
2023-03-10T06:01:53.165Z,97
2023-03-10T06:05:18.302Z,97
2023-03-10T06:08:43.490Z,98
2023-03-10T06:12:08.632Z,97
2023-03-10T06:15:33.790Z,97
2023-03-10T06:18:58.956Z,97
2023-03-10T06:22:24.132Z,97
2023-03-10T06:25:49.282Z,97
2023-03-10T06:29:14.475Z,97
2023-03-10T06:32:39.658Z,96
2023-03-10T06:36:04.815Z,96
2023-03-10T06:39:29.947Z,96
2023-03-10T06:42:55.106Z,96
2023-03-10T06:46:20.371Z,96
2023-03-10T06:49:45.477Z,95
2023-03-10T06:53:10.675Z,95
2023-03-10T06:56:35.832Z,95
2023-03-10T07:00:00.997Z,95
2023-03-10T07:03:26.180Z,95
2023-03-10T07:06:51.305Z,93
2023-03-10T07:10:16.444Z,93
2023-03-10T07:13:41.605Z,92
2023-03-10T07:17:06.827Z,92
2023-03-10T07:20:31.984Z,92
2023-03-10T07:23:57.164Z,92
2023-03-10T07:27:22.288Z,92
2023-03-10T07:30:47.463Z,93
2023-03-10T07:34:12.571Z,93
2023-03-10T07:37:37.835Z,94
2023-03-10T07:41:02.878Z,94
2023-03-10T07:44:28.038Z,93
2023-03-10T07:47:53.211Z,94
2023-03-10T07:51:18.345Z,94
2023-03-10T07:54:43.486Z,94
2023-03-10T07:58:08.619Z,94
2023-03-10T08:01:33.756Z,94
2023-03-10T08:04:59.104Z,93
2023-03-10T08:08:24.113Z,93
2023-03-10T08:11:49.312Z,93
2023-03-10T08:15:14.440Z,93
2023-03-10T08:18:39.620Z,92
2023-03-10T08:22:04.805Z,93
2023-03-10T08:25:29.970Z,93
2023-03-10T08:28:55.192Z,93
2023-03-10T08:32:20.322Z,92
2023-03-10T08:35:45.502Z,91
2023-03-10T08:39:10.639Z,91
2023-03-10T08:42:35.794Z,91
2023-03-10T08:46:00.985Z,91
2023-03-10T08:49:26.127Z,91
2023-03-10T08:52:51.264Z,91
2023-03-10T08:56:16.437Z,91
2023-03-10T08:59:41.596Z,91
2023-03-10T09:03:06.792Z,91
2023-03-10T09:06:31.888Z,91
2023-03-10T09:09:57.056Z,90
2023-03-10T09:13:22.225Z,90
2023-03-10T09:16:47.548Z,90
2023-03-10T09:20:12.651Z,89
2023-03-10T09:23:37.811Z,90
2023-03-10T09:27:02.961Z,89
2023-03-10T09:30:28.143Z,90
2023-03-10T09:33:53.284Z,90
2023-03-10T09:37:18.463Z,90
2023-03-10T09:40:43.627Z,90
2023-03-10T09:44:08.770Z,90
2023-03-10T09:47:33.936Z,90
2023-03-10T09:50:59.091Z,90
2023-03-10T09:54:24.271Z,89
2023-03-10T09:57:49.400Z,89
2023-03-10T10:01:14.540Z,88
2023-03-10T10:04:39.795Z,89
2023-03-10T10:08:04.876Z,89
2023-03-10T10:11:30.070Z,88
2023-03-10T10:14:57.587Z,87
2023-03-10T10:18:22.651Z,87
2023-03-10T10:21:45.511Z,87
2023-03-10T10:25:10.672Z,87
2023-03-10T10:28:35.848Z,87
2023-03-10T10:32:00.976Z,87
2023-03-10T10:35:26.141Z,86
2023-03-10T10:38:51.279Z,86
2023-03-10T10:42:16.442Z,85
2023-03-10T10:45:41.698Z,84
2023-03-10T10:49:07.565Z,84
2023-03-10T10:52:32.701Z,84
2023-03-10T10:55:57.843Z,83
2023-03-10T10:59:23.009Z,83
2023-03-10T11:02:48.312Z,83
2023-03-10T11:06:13.331Z,83
2023-03-10T11:09:38.490Z,84
2023-03-10T11:13:03.671Z,82
2023-03-10T11:16:28.873Z,84
2023-03-10T11:19:54.102Z,81
2023-03-10T11:23:19.215Z,82
2023-03-10T11:26:44.368Z,80
2023-03-10T11:30:09.529Z,78
2023-03-10T11:33:34.682Z,80
2023-03-10T11:36:59.874Z,81
2023-03-10T11:40:25.197Z,80
2023-03-10T11:43:50.360Z,80
2023-03-10T11:47:15.512Z,81
2023-03-10T11:50:40.701Z,82
2023-03-10T11:54:05.924Z,82
2023-03-10T11:57:31.075Z,84
2023-03-10T12:00:56.250Z,85
2023-03-10T12:04:21.413Z,88
2023-03-10T12:07:46.588Z,89
2023-03-10T12:11:12.224Z,89
2023-03-10T12:14:37.606Z,89
2023-03-10T12:18:03.565Z,89
2023-03-10T12:21:28.950Z,91
2023-03-10T12:24:54.332Z,91
2023-03-10T12:28:19.711Z,92
2023-03-10T12:31:45.080Z,92
2023-03-10T12:35:10.436Z,92
2023-03-10T12:38:35.812Z,91
2023-03-10T12:42:01.239Z,91
2023-03-10T12:45:27.005Z,91
2023-03-10T12:48:52.569Z,91
2023-03-10T12:52:17.961Z,92
2023-03-10T12:55:43.318Z,92
2023-03-10T12:59:08.645Z,92
2023-03-10T13:02:34.089Z,92
2023-03-10T13:05:59.424Z,91
2023-03-10T13:09:24.794Z,91
2023-03-10T13:12:50.215Z,92
2023-03-10T13:16:15.649Z,91
2023-03-10T13:19:41.050Z,91
2023-03-10T13:23:06.377Z,92
2023-03-10T13:26:31.696Z,91
2023-03-10T13:29:57.059Z,91
2023-03-10T13:33:25.389Z,92
2023-03-10T13:36:47.878Z,91
2023-03-10T13:40:13.215Z,92
2023-03-10T13:43:38.597Z,92
2023-03-10T13:47:03.931Z,92
2023-03-10T13:50:29.316Z,93
2023-03-10T13:53:54.792Z,94
2023-03-10T13:57:20.095Z,93
2023-03-10T14:00:46.055Z,93
2023-03-10T14:04:11.645Z,92
2023-03-10T14:07:45.064Z,92
2023-03-10T14:11:13.613Z,91
2023-03-10T14:14:39.018Z,92
2023-03-10T14:18:04.363Z,92
2023-03-10T14:21:29.706Z,92
2023-03-10T14:24:55.097Z,92
2023-03-10T14:28:16.917Z,92
2023-03-10T15:04:50.423Z,90
2023-03-10T15:08:16.512Z,90
2023-03-10T15:11:42.598Z,91
2023-03-10T15:15:08.768Z,91
2023-03-10T15:18:35.233Z,92
2023-03-10T15:22:01.271Z,92
2023-03-10T15:25:27.418Z,93
2023-03-10T15:28:53.463Z,93
2023-03-10T15:32:19.639Z,92
2023-03-10T15:35:45.821Z,93
2023-03-10T15:39:16.340Z,93
2023-03-10T15:42:40.061Z,94
2023-03-10T15:46:39.902Z,94
2023-03-10T15:50:06.012Z,94
2023-03-10T15:53:32.018Z,94
2023-03-10T15:56:58.155Z,94
2023-03-10T16:00:24.318Z,94
2023-03-10T16:03:50.400Z,95
2023-03-10T16:07:16.138Z,95
2023-03-10T16:10:41.342Z,95
2023-03-10T16:14:06.578Z,95
2023-03-10T16:17:31.728Z,95
2023-03-10T16:20:56.931Z,95
2023-03-10T16:24:22.134Z,95
2023-03-10T16:27:47.313Z,94
2023-03-10T16:31:12.594Z,94
2023-03-10T16:34:37.742Z,94
2023-03-10T16:38:02.915Z,94
2023-03-10T16:41:29.745Z,93
2023-03-10T16:44:53.331Z,93
2023-03-10T16:48:18.537Z,93
2023-03-10T16:51:43.723Z,94
2023-03-10T16:55:09.203Z,94
2023-03-10T16:58:34.801Z,94
2023-03-10T17:02:00.141Z,94
2023-03-10T17:05:25.353Z,93
2023-03-10T17:08:50.521Z,93
2023-03-10T17:12:15.720Z,93
2023-03-10T17:15:40.945Z,93
2023-03-10T17:19:06.148Z,93
2023-03-10T17:22:31.356Z,94
2023-03-10T17:25:56.953Z,93
2023-03-10T17:29:21.732Z,94
2023-03-10T17:32:47.065Z,94
2023-03-10T17:36:12.365Z,95
2023-03-10T17:39:37.688Z,95
2023-03-10T17:43:13.091Z,95
2023-03-10T17:46:28.315Z,95
2023-03-10T17:49:54.493Z,94
2023-03-10T17:53:19.826Z,95
2023-03-10T17:56:45.158Z,95
2023-03-10T18:00:10.452Z,94
2023-03-10T18:03:35.743Z,94
2023-03-10T18:07:00.953Z,94
2023-03-10T18:10:26.241Z,93
2023-03-10T18:13:51.638Z,92
2023-03-10T18:17:16.856Z,92
2023-03-10T18:20:42.134Z,93
2023-03-10T18:24:07.417Z,93
2023-03-10T18:27:32.665Z,93
2023-03-10T18:30:58.120Z,93
2023-03-10T18:34:23.285Z,93
2023-03-10T18:37:48.575Z,93
2023-03-10T18:41:13.867Z,93
2023-03-10T18:44:39.137Z,93
2023-03-10T18:48:04.524Z,93
2023-03-10T18:51:29.824Z,92
2023-03-10T18:54:55.157Z,93
2023-03-10T18:58:20.458Z,93
2023-03-10T19:01:45.806Z,94
2023-03-10T19:05:11.094Z,93
2023-03-10T19:08:36.382Z,93
2023-03-10T19:12:01.671Z,93
2023-03-10T19:15:26.986Z,93
2023-03-10T19:18:52.260Z,93
2023-03-10T19:22:17.570Z,93
2023-03-10T19:25:42.840Z,93
2023-03-10T19:29:08.117Z,93
2023-03-10T19:32:33.443Z,93
2023-03-10T19:35:58.758Z,93
2023-03-10T19:39:24.050Z,93
2023-03-10T19:42:49.316Z,93
2023-03-10T19:46:14.679Z,93
2023-03-10T19:49:39.874Z,93
2023-03-10T19:53:05.192Z,94
2023-03-10T19:56:30.528Z,94
2023-03-10T19:59:55.802Z,93
2023-03-10T20:03:21.118Z,93
2023-03-10T20:06:46.378Z,93
2023-03-10T20:10:11.649Z,93
2023-03-10T20:13:36.943Z,93
2023-03-10T20:17:02.258Z,93
2023-03-10T20:20:27.567Z,92
2023-03-10T20:23:54.806Z,93
2023-03-10T20:27:18.152Z,93
2023-03-10T20:30:43.506Z,92
2023-03-10T20:34:08.787Z,92
2023-03-10T20:37:34.036Z,93
2023-03-10T20:40:59.306Z,92
2023-03-10T20:44:24.615Z,92
2023-03-10T20:47:49.933Z,93
2023-03-10T20:51:15.478Z,93
2023-03-10T20:54:40.500Z,92
2023-03-10T20:58:05.779Z,92
2023-03-10T21:01:31.139Z,93
2023-03-10T21:04:56.455Z,93
2023-03-10T21:08:21.724Z,93
2023-03-10T21:11:47.050Z,93
2023-03-10T21:15:12.357Z,93
2023-03-10T21:18:37.632Z,93
2023-03-10T21:22:03.520Z,93
2023-03-10T21:25:28.188Z,93
2023-03-10T21:28:53.509Z,93
2023-03-10T21:32:18.953Z,93
2023-03-10T21:35:44.218Z,93
2023-03-10T21:39:09.459Z,91
2023-03-10T21:42:34.653Z,92
2023-03-10T21:45:59.975Z,91
2023-03-10T21:49:25.202Z,92
2023-03-10T21:52:50.546Z,92
2023-03-10T21:56:15.721Z,91
2023-03-10T21:59:40.937Z,91
2023-03-10T22:03:06.181Z,92
2023-03-10T22:06:31.433Z,90
2023-03-10T22:09:56.696Z,90
2023-03-10T22:13:21.981Z,90
2023-03-10T22:16:47.200Z,89
2023-03-10T22:20:12.437Z,91
2023-03-10T22:23:37.680Z,89
2023-03-10T22:27:02.916Z,89
2023-03-10T22:30:28.189Z,89
2023-03-10T22:33:53.421Z,88
2023-03-10T22:37:18.624Z,87
2023-03-10T22:40:43.832Z,88
2023-03-10T22:44:09.063Z,87
2023-03-10T22:47:34.336Z,82
2023-03-10T22:50:59.540Z,82
2023-03-10T22:54:24.749Z,83
2023-03-10T22:57:49.947Z,82
2023-03-10T23:01:15.192Z,86
2023-03-10T23:04:40.455Z,87
2023-03-10T23:08:05.653Z,88
2023-03-10T23:11:30.906Z,88
2023-03-10T23:14:56.144Z,88
2023-03-10T23:18:21.381Z,89
2023-03-10T23:21:46.617Z,90
2023-03-10T23:25:11.808Z,91
2023-03-10T23:28:37.050Z,92
2023-03-10T23:32:02.277Z,91
2023-03-10T23:35:27.501Z,90
2023-03-10T23:38:52.780Z,88
2023-03-10T23:42:17.963Z,88
2023-03-10T23:45:43.224Z,87
2023-03-10T23:49:08.405Z,86
2023-03-10T23:52:33.635Z,86
2023-03-10T23:55:58.928Z,86
2023-03-10T23:59:24.081Z,87
